Time;durP1;ratioP1;P1;durP2;ratioP2;P2;SDS_P1;SDS_P2;PMS_P1;PMS_P2;Temp;Humidity;BMP_temperature;BMP_pressure;BME280_temperature;BME280_humidity;BME280_pressure;Samples;Min_cycle;Max_cycle;Signal;HPM_P1;HPM_P2
2021/03/22 00:02:31;;;;;;;13.88;7.25;;;;;;;2.38;84.07;100079.77;2718811;86;21130;-61
2021/03/22 00:06:34;;;;;;;22.02;10.65;;;;;;;2.33;84.10;100093.56;2749418;86;21142;-61
2021/03/22 00:10:42;;;;;;;17.52;11.20;;;;;;;2.29;84.10;100090.72;2720183;87;21237;-60
2021/03/22 00:14:45;;;;;;;13.00;8.58;;;;;;;2.28;84.26;100098.20;2720504;87;21173;-61
2021/03/22 00:18:48;;;;;;;17.98;9.95;;;;;;;2.26;84.15;100107.48;2747369;86;21150;-60
2021/03/22 00:22:51;;;;;;;18.30;10.28;;;;;;;2.21;84.07;100109.47;2720595;87;21638;-60
2021/03/22 00:26:54;;;;;;;20.12;9.88;;;;;;;2.16;84.04;100111.93;2747276;86;21131;-60
2021/03/22 00:30:57;;;;;;;17.77;12.28;;;;;;;2.09;84.35;100122.73;2747264;86;21163;-59
2021/03/22 00:35:00;;;;;;;19.12;11.30;;;;;;;2.09;84.79;100119.28;2747291;86;21143;-60
2021/03/22 00:39:05;;;;;;;20.23;11.25;;;;;;;2.16;84.55;100125.05;2747384;86;21150;-60
2021/03/22 00:43:10;;;;;;;17.45;11.00;;;;;;;2.11;84.12;100109.08;2747298;86;21197;-60
2021/03/22 00:47:15;;;;;;;18.48;11.90;;;;;;;2.13;84.09;100107.70;2744878;86;21198;-60
2021/03/22 00:51:18;;;;;;;17.12;10.58;;;;;;;2.21;84.20;100109.95;2747318;86;21115;-61
2021/03/22 00:55:22;;;;;;;19.85;11.60;;;;;;;2.23;83.32;100114.66;2747149;86;21133;-61
2021/03/22 00:59:24;;;;;;;18.37;9.68;;;;;;;2.19;83.04;100116.58;2747212;86;21162;-61
2021/03/22 01:03:31;;;;;;;14.40;10.25;;;;;;;2.09;83.44;100121.91;2747325;85;21532;-62
2021/03/22 01:07:34;;;;;;;17.55;12.25;;;;;;;2.10;83.65;100117.88;2747079;86;21143;-59
2021/03/22 01:11:39;;;;;;;20.15;12.23;;;;;;;2.10;83.58;100115.25;2747324;86;21166;-61
2021/03/22 01:15:42;;;;;;;11.60;9.45;;;;;;;2.11;83.20;100111.70;2747218;86;21162;-60
2021/03/22 01:19:45;;;;;;;17.77;10.50;;;;;;;2.13;83.00;100107.22;2747227;86;21187;-59
2021/03/22 01:23:49;;;;;;;18.37;11.00;;;;;;;2.17;82.89;100108.41;2746979;86;21167;-60
2021/03/22 01:27:52;;;;;;;22.95;11.12;;;;;;;2.23;82.76;100101.53;2747237;86;21645;-60
2021/03/22 01:31:59;;;;;;;15.72;9.48;;;;;;;2.27;82.32;100097.82;2748065;86;21151;-59
2021/03/22 01:36:06;;;;;;;20.23;10.08;;;;;;;2.25;81.84;100097.89;2747637;86;21613;-61
2021/03/22 01:40:23;;;;;;;27.60;9.30;;;;;;;2.16;81.65;100089.62;2747400;86;21139;-60
2021/03/22 01:44:53;;;;;;;18.55;11.68;;;;;;;2.06;81.80;100100.59;3065187;77;22554;-59
2021/03/22 01:48:56;;;;;;;16.97;10.78;;;;;;;1.94;82.35;100092.00;3019174;78;21148;-58
2021/03/22 01:53:01;;;;;;;15.40;8.50;;;;;;;1.92;82.49;100083.36;3019278;78;21148;-59
2021/03/22 01:57:32;;;;;;;19.77;11.40;;;;;;;2.03;82.58;100082.38;3007329;78;21157;-59
2021/03/22 02:01:37;;;;;;;18.07;8.20;;;;;;;2.07;82.04;100081.78;2996133;78;22234;-60
2021/03/22 02:05:45;;;;;;;16.65;9.08;;;;;;;2.13;81.99;100071.80;2965612;80;21426;-59
2021/03/22 02:09:48;;;;;;;16.07;8.25;;;;;;;2.23;81.67;100062.16;2965809;80;21124;-58
2021/03/22 02:13:55;;;;;;;17.15;9.25;;;;;;;2.31;81.38;100067.03;2965354;80;21156;-60
2021/03/22 02:18:36;;;;;;;11.83;7.87;;;;;;;2.33;80.97;100069.94;2965407;80;21204;-59
2021/03/22 02:23:25;;;;;;;13.78;8.05;;;;;;;2.39;80.65;100069.65;2965524;80;21575;-59
2021/03/22 02:27:47;;;;;;;;;;;;;;;2.42;80.29;100076.05;2967604;80;21113;-59
2021/03/22 02:32:18;;;;;;;9.55;7.03;;;;;;;2.40;79.87;100071.80;2964661;80;20171;-60
2021/03/22 02:36:44;;;;;;;12.53;7.35;;;;;;;2.32;79.76;100080.05;2965432;80;21129;-59
2021/03/22 02:40:57;;;;;;;12.15;6.47;;;;;;;2.29;79.66;100078.91;2965670;80;21165;-59
2021/03/22 02:45:00;;;;;;;8.98;6.33;;;;;;;2.25;79.44;100083.93;2965825;80;21137;-61
2021/03/22 02:49:10;;;;;;;9.70;7.25;;;;;;;2.23;79.80;100081.84;2965659;80;21161;-59
2021/03/22 02:53:49;;;;;;;12.68;7.92;;;;;;;2.28;80.01;100081.14;2965088;80;21129;-58
2021/03/22 02:58:06;;;;;;;14.13;7.60;;;;;;;2.29;79.97;100081.53;2964612;80;21153;-59
2021/03/22 03:02:11;;;;;;;10.95;6.33;;;;;;;2.34;79.68;100085.24;2965045;78;21186;-59
2021/03/22 03:06:14;;;;;;;13.50;6.47;;;;;;;2.32;79.59;100092.35;2934496;80;21172;-59
2021/03/22 03:10:19;;;;;;;11.93;7.83;;;;;;;2.24;79.57;100090.11;2964756;80;21141;-58
2021/03/22 03:14:24;;;;;;;18.40;8.08;;;;;;;2.08;79.73;100096.59;2964557;80;21124;-59
2021/03/22 03:18:27;;;;;;;10.35;6.30;;;;;;;1.95;80.08;100106.37;2964484;80;21129;-59
2021/03/22 03:22:30;;;;;;;13.38;7.53;;;;;;;1.89;80.68;100101.87;2964881;80;21611;-59
2021/03/22 03:26:37;;;;;;;15.10;8.53;;;;;;;1.87;80.70;100095.86;2964470;80;21145;-59
2021/03/22 03:30:40;;;;;;;10.63;6.70;;;;;;;1.85;80.69;100095.47;2964593;80;21124;-58
2021/03/22 03:34:44;;;;;;;12.75;8.03;;;;;;;1.91;80.54;100096.09;2952720;80;21117;-59
2021/03/22 03:38:47;;;;;;;12.25;7.45;;;;;;;1.94;80.75;100092.00;2960984;80;22095;-59
2021/03/22 03:42:51;;;;;;;12.20;7.08;;;;;;;2.02;80.55;100095.12;2962153;79;21554;-59
2021/03/22 03:46:53;;;;;;;13.58;6.60;;;;;;;2.07;80.33;100097.05;2960554;80;21137;-58
2021/03/22 03:50:59;;;;;;;10.75;7.22;;;;;;;2.10;80.16;100107.38;2954551;80;21149;-58
2021/03/22 03:55:06;;;;;;;8.98;7.03;;;;;;;2.12;80.07;100104.22;2960783;80;21188;-59
2021/03/22 03:59:09;;;;;;;16.07;7.60;;;;;;;2.15;80.01;100109.78;2934673;80;21165;-60
2021/03/22 04:03:35;;;;;;;10.05;6.53;;;;;;;2.17;79.75;100106.62;2961388;79;21125;-58
2021/03/22 04:07:39;;;;;;;13.40;7.47;;;;;;;2.20;79.74;100114.81;2961085;80;21141;-57
2021/03/22 04:11:46;;;;;;;13.62;7.85;;;;;;;2.25;79.44;100110.17;2961557;80;21136;-59
2021/03/22 04:15:49;;;;;;;8.38;6.50;;;;;;;2.27;79.30;100119.69;2961148;80;21547;-62
2021/03/22 04:19:54;;;;;;;13.30;8.25;;;;;;;2.28;79.18;100119.20;2957873;80;21570;-63
2021/03/22 04:23:59;;;;;;;13.78;7.95;;;;;;;2.17;78.99;100123.68;2961378;80;21591;-63
2021/03/22 04:28:04;;;;;;;17.33;8.37;;;;;;;2.03;79.36;100123.05;2961576;80;21719;-62
2021/03/22 04:32:09;;;;;;;12.30;9.08;;;;;;;1.92;79.83;100122.71;2961450;80;21121;-64
2021/03/22 04:36:13;;;;;;;16.82;9.73;;;;;;;1.87;80.34;100122.95;2961093;80;21594;-63
2021/03/22 04:40:21;;;;;;;14.13;6.97;;;;;;;1.87;80.54;100121.64;2961280;80;21113;-62
2021/03/22 04:44:25;;;;;;;11.48;7.78;;;;;;;1.87;80.59;100136.52;2954764;80;21133;-63
2021/03/22 04:48:29;;;;;;;13.40;8.13;;;;;;;1.83;80.87;100136.67;2952636;80;21165;-63
2021/03/22 04:52:32;;;;;;;16.07;7.72;;;;;;;1.85;80.96;100136.58;2952669;80;21149;-63
2021/03/22 04:56:36;;;;;;;11.88;7.92;;;;;;;1.89;81.26;100121.55;2952509;80;21177;-62
2021/03/22 05:00:44;;;;;;;16.35;7.55;;;;;;;1.94;81.06;100122.17;2952507;79;21161;-63
2021/03/22 05:04:47;;;;;;;10.78;6.85;;;;;;;1.98;80.76;100125.06;2952263;80;21320;-61
2021/03/22 05:08:50;;;;;;;16.90;10.60;;;;;;;2.00;80.73;100142.89;2952378;80;21153;-65
2021/03/22 05:12:53;;;;;;;17.52;8.65;;;;;;;2.04;80.76;100139.18;2952535;80;21205;-62
2021/03/22 05:16:57;;;;;;;13.20;8.05;;;;;;;2.09;80.89;100140.28;2952469;80;21179;-63
2021/03/22 05:21:06;;;;;;;18.85;9.05;;;;;;;2.13;81.08;100143.97;2952335;80;21192;-63
2021/03/22 05:25:10;;;;;;;11.83;7.90;;;;;;;2.23;80.99;100159.28;2952921;80;21157;-63
2021/03/22 05:29:13;;;;;;;12.03;8.68;;;;;;;2.23;81.01;100167.98;2952623;80;21157;-65
2021/03/22 05:33:17;;;;;;;10.88;7.97;;;;;;;2.25;81.23;100156.94;2952537;80;21157;-65
2021/03/22 05:37:20;;;;;;;14.80;9.48;;;;;;;2.32;81.20;100164.06;2952396;80;21145;-65
2021/03/22 05:41:26;;;;;;;15.05;9.68;;;;;;;2.33;81.16;100162.30;2952490;80;21180;-64
2021/03/22 05:46:14;;;;;;;18.43;10.00;;;;;;;2.41;81.22;100157.05;2960926;80;21148;-65
2021/03/22 05:50:27;;;;;;;14.47;7.75;;;;;;;2.50;80.95;100160.13;2961036;80;21148;-63
2021/03/22 05:54:58;;;;;;;11.65;7.78;;;;;;;2.57;80.75;100160.23;2961374;80;21172;-63
2021/03/22 05:59:35;;;;;;;8.73;6.30;;;;;;;2.64;80.29;100162.92;2961404;80;21168;-64
2021/03/22 06:04:08;;;;;;;12.98;5.70;;;;;;;2.67;79.70;100168.48;2961312;80;21164;-64
2021/03/22 06:08:45;;;;;;;11.40;5.72;;;;;;;2.70;79.87;100169.16;2960752;80;22118;-64
2021/03/22 06:12:53;;;;;;;10.05;5.72;;;;;;;2.76;79.87;100169.32;2961677;80;21141;-63
2021/03/22 06:17:24;;;;;;;10.23;4.85;;;;;;;2.80;79.76;100177.91;2961448;80;21156;-66
2021/03/22 06:21:32;;;;;;;7.65;5.22;;;;;;;2.82;79.98;100170.80;2957713;80;21145;-64
2021/03/22 06:25:36;;;;;;;7.25;4.72;;;;;;;2.86;79.55;100174.95;2961217;80;21169;-65
2021/03/22 06:29:39;;;;;;;7.50;5.08;;;;;;;2.90;79.68;100187.48;2961896;80;21177;-65
2021/03/22 06:33:50;;;;;;;12.45;6.22;;;;;;;2.95;79.27;100190.27;2961587;80;21141;-65
2021/03/22 06:37:53;;;;;;;9.33;5.33;;;;;;;2.98;78.82;100190.09;2935217;80;21700;-65
2021/03/22 06:41:59;;;;;;;15.45;5.87;;;;;;;3.01;78.38;100196.95;2961216;80;21129;-66
2021/03/22 06:46:09;;;;;;;7.95;5.35;;;;;;;3.02;78.87;100206.53;2961171;80;21164;-66
2021/03/22 06:50:29;;;;;;;12.15;5.87;;;;;;;3.09;78.72;100209.70;2961464;80;21129;-65
2021/03/22 06:54:38;;;;;;;10.95;5.17;;;;;;;3.09;78.90;100204.44;2961268;80;21145;-66
2021/03/22 06:58:43;;;;;;;10.63;6.00;;;;;;;3.10;79.16;100217.52;2959049;80;21638;-65
2021/03/22 07:02:59;;;;;;;7.80;5.37;;;;;;;3.12;79.04;100222.67;2961269;80;21148;-65
2021/03/22 07:07:24;;;;;;;4.87;4.22;;;;;;;3.11;78.74;100231.49;2961684;80;21148;-65
2021/03/22 07:11:27;;;;;;;8.58;6.03;;;;;;;3.15;78.69;100238.31;2960880;80;21156;-66
2021/03/22 07:15:33;;;;;;;6.70;5.10;;;;;;;3.22;78.92;100236.19;2961197;80;21160;-65
2021/03/22 07:19:36;;;;;;;9.78;6.25;;;;;;;3.24;78.51;100244.84;2961494;80;21176;-66
2021/03/22 07:23:53;;;;;;;9.00;5.58;;;;;;;3.28;78.84;100252.50;2961428;80;21152;-66
2021/03/22 07:28:03;;;;;;;8.80;6.85;;;;;;;3.36;78.99;100264.42;2961279;80;21168;-66
2021/03/22 07:32:21;;;;;;;13.08;4.65;;;;;;;3.42;78.14;100267.55;2961531;80;21121;-67
2021/03/22 07:36:43;;;;;;;9.08;6.37;;;;;;;3.45;77.81;100275.76;2960564;80;21137;-66
2021/03/22 07:41:11;;;;;;;12.47;6.35;;;;;;;3.49;77.82;100274.66;2961747;80;21555;-66
2021/03/22 07:45:43;;;;;;;6.58;3.67;;;;;;;3.48;76.95;100269.02;2963693;80;21153;-67
2021/03/22 07:50:16;;;;;;;7.35;5.80;;;;;;;3.54;76.69;100267.40;2956984;80;21109;-66
2021/03/22 07:54:55;;;;;;;6.03;4.47;;;;;;;3.68;77.74;100265.80;2950283;80;21146;-66
2021/03/22 07:59:32;;;;;;;7.40;4.62;;;;;;;3.77;77.42;100273.66;2949999;80;21150;-66
2021/03/22 08:04:09;;;;;;;9.10;6.05;;;;;;;3.82;76.73;100276.89;2950679;80;21149;-66
2021/03/22 08:08:36;;;;;;;10.63;4.67;;;;;;;3.90;76.76;100269.45;2898341;80;21604;-66
2021/03/22 08:13:20;;;;;;;6.42;3.92;;;;;;;4.01;76.45;100276.76;2950179;80;21658;-67
2021/03/22 08:17:35;;;;;;;9.88;4.95;;;;;;;4.00;76.22;100281.64;2949831;79;21125;-66
2021/03/22 08:21:52;;;;;;;7.67;3.98;;;;;;;4.05;76.65;100276.13;2944039;79;21162;-67
2021/03/22 08:25:56;;;;;;;;;;;;;;;4.11;76.75;100282.37;2926006;81;21150;-66
2021/03/22 08:30:27;;;;;;;6.62;3.60;;;;;;;4.00;75.45;100281.16;2932097;80;20278;-66
2021/03/22 08:34:50;;;;;;;5.30;4.00;;;;;;;4.09;76.57;100292.97;2931940;80;21146;-67
2021/03/22 08:39:32;;;;;;;8.33;3.83;;;;;;;4.37;76.74;100297.18;2931638;81;21166;-67
2021/03/22 08:44:03;;;;;;;9.55;6.80;;;;;;;4.55;76.43;100292.68;2934236;80;21133;-67
2021/03/22 08:48:27;;;;;;;9.05;4.22;;;;;;;4.71;75.71;100300.06;2940978;80;21138;-66
2021/03/22 08:52:34;;;;;;;4.12;3.72;;;;;;;4.88;76.67;100305.33;2941221;80;21157;-67
2021/03/22 08:56:47;;;;;;;7.70;5.00;;;;;;;5.05;76.22;100303.02;2940793;80;21153;-68
2021/03/22 09:00:54;;;;;;;7.35;3.80;;;;;;;5.22;75.10;100306.84;2939958;80;21126;-67
2021/03/22 09:04:59;;;;;;;7.58;5.85;;;;;;;5.46;75.65;100307.63;2941204;80;21146;-67
2021/03/22 09:09:24;;;;;;;9.35;3.60;;;;;;;5.67;74.37;100295.39;2911987;80;21122;-67
2021/03/22 09:13:32;;;;;;;12.60;5.47;;;;;;;5.68;72.00;100303.22;2941235;80;21149;-65
2021/03/22 09:17:53;;;;;;;9.43;5.40;;;;;;;5.91;73.75;100301.44;2941118;80;21141;-65
2021/03/22 09:22:04;;;;;;;10.15;4.92;;;;;;;6.19;73.83;100306.33;2894709;80;21145;-64
2021/03/22 09:26:11;;;;;;;6.85;4.17;;;;;;;6.41;70.97;100304.50;2941045;80;21126;-65
2021/03/22 09:30:36;;;;;;;9.43;5.83;;;;;;;6.64;71.64;100306.95;2941242;80;21148;-65
2021/03/22 09:34:45;;;;;;;12.18;6.80;;;;;;;6.89;72.07;100314.63;2941449;80;21141;-68
2021/03/22 09:38:52;;;;;;;4.28;2.95;;;;;;;7.20;70.08;100321.82;2941544;80;21590;-68
2021/03/22 09:43:24;;;;;;;7.12;2.60;;;;;;;7.57;67.87;100323.78;2940989;80;21154;-68
2021/03/22 09:47:37;;;;;;;3.95;3.15;;;;;;;7.82;64.27;100316.78;2940841;80;21162;-68
2021/03/22 09:51:52;;;;;;;4.83;3.00;;;;;;;7.96;62.06;100319.31;2941015;80;21130;-68
2021/03/22 09:56:07;;;;;;;7.67;2.77;;;;;;;8.07;62.20;100319.02;2940702;80;21161;-67
2021/03/22 10:00:32;;;;;;;6.42;2.83;;;;;;;8.35;62.69;100310.41;2940959;80;21122;-65
2021/03/22 10:04:40;;;;;;;3.00;1.90;;;;;;;8.32;57.29;100318.12;2939224;80;21173;-66
2021/03/22 10:08:46;;;;;;;3.83;2.07;;;;;;;8.50;61.52;100327.89;2941872;80;21153;-66
2021/03/22 10:13:03;;;;;;;5.03;1.25;;;;;;;8.64;58.53;100322.89;2941375;80;21224;-65
2021/03/22 10:17:30;;;;;;;2.40;1.50;;;;;;;8.71;57.32;100325.95;2940901;80;21173;-66
2021/03/22 10:21:59;;;;;;;3.00;1.72;;;;;;;8.79;59.61;100322.27;2941562;80;21157;-66
2021/03/22 10:26:17;;;;;;;3.98;1.50;;;;;;;8.93;57.36;100323.03;2941705;80;21165;-66
2021/03/22 10:30:27;;;;;;;2.60;1.77;;;;;;;8.98;56.55;100323.06;2941518;80;21150;-66
2021/03/22 10:35:06;;;;;;;2.77;1.95;;;;;;;9.00;54.62;100325.61;2942241;80;21532;-66
2021/03/22 10:39:38;;;;;;;6.10;2.37;;;;;;;9.19;57.52;100312.28;2940668;80;21614;-66
2021/03/22 10:43:43;;;;;;;4.08;1.00;;;;;;;9.11;55.45;100328.79;2940345;80;21608;-66
2021/03/22 10:47:51;;;;;;;4.22;1.00;;;;;;;9.10;55.45;100320.46;2932204;80;21146;-66
2021/03/22 10:52:01;;;;;;;1.50;1.25;;;;;;;9.08;55.27;100321.89;2932227;81;21623;-66
2021/03/22 10:56:20;;;;;;;2.83;1.27;;;;;;;8.97;54.05;100329.83;2932669;80;21141;-66
2021/03/22 11:00:39;;;;;;;1.60;0.90;;;;;;;8.86;52.49;100331.95;2958875;80;21164;-67
2021/03/22 11:04:46;;;;;;;2.30;1.20;;;;;;;8.96;54.24;100336.09;2929232;80;21166;-68
2021/03/22 11:09:00;;;;;;;2.12;1.27;;;;;;;9.29;51.59;100335.36;2959329;80;21733;-68
2021/03/22 11:13:10;;;;;;;3.27;1.47;;;;;;;9.38;51.67;100340.92;2959404;80;21153;-67
2021/03/22 11:17:23;;;;;;;1.85;1.15;;;;;;;9.53;54.35;100335.77;2959269;80;21141;-68
2021/03/22 11:21:28;;;;;;;2.65;1.25;;;;;;;9.46;50.33;100335.03;2931697;80;21148;-67
2021/03/22 11:25:35;;;;;;;2.65;0.95;;;;;;;9.40;50.91;100346.49;2959139;80;21177;-67
2021/03/22 11:30:03;;;;;;;2.22;1.15;;;;;;;9.63;47.78;100355.83;2959415;80;21114;-68
2021/03/22 11:34:23;;;;;;;2.17;0.80;;;;;;;9.65;50.70;100348.59;2959213;80;21137;-67
2021/03/22 11:38:31;;;;;;;1.17;0.62;;;;;;;9.76;46.05;100345.09;2959035;80;21122;-67
2021/03/22 11:42:56;;;;;;;2.33;1.05;;;;;;;9.95;48.71;100343.66;2959551;80;21113;-67
2021/03/22 11:47:38;;;;;;;1.30;0.80;;;;;;;10.10;46.29;100340.27;2957040;80;21129;-68
2021/03/22 11:51:50;;;;;;;1.75;1.52;;;;;;;10.05;47.41;100367.23;2919018;81;21156;-67
2021/03/22 11:55:57;;;;;;;3.42;1.87;;;;;;;10.02;46.65;100351.50;2934015;79;21145;-68
2021/03/22 12:00:28;;;;;;;2.27;1.32;;;;;;;10.14;45.32;100340.41;2883408;82;21602;-67
2021/03/22 12:04:32;;;;;;;1.60;0.95;;;;;;;10.25;46.37;100355.01;2869020;83;21182;-68
2021/03/22 12:08:49;;;;;;;5.05;1.85;;;;;;;10.17;47.77;100347.28;2882850;82;21133;-68
2021/03/22 12:12:52;;;;;;;2.98;1.37;;;;;;;10.04;47.73;100358.91;2806130;84;21172;-68
2021/03/22 12:17:03;;;;;;;1.98;1.10;;;;;;;9.98;47.85;100358.89;2831586;84;21153;-68
2021/03/22 12:21:10;;;;;;;1.05;0.98;;;;;;;9.96;46.33;100355.98;2831733;84;21152;-67
2021/03/22 12:25:27;;;;;;;2.83;2.12;;;;;;;9.81;46.35;100346.91;2869598;82;21184;-67
2021/03/22 12:29:30;;;;;;;2.17;1.22;;;;;;;9.73;47.84;100365.27;2883293;82;21666;-67
2021/03/22 12:33:34;;;;;;;2.55;1.12;;;;;;;9.65;47.15;100361.03;2956345;80;21169;-67
2021/03/22 12:37:37;;;;;;;1.65;1.00;;;;;;;9.51;45.92;100350.12;2950605;80;21093;-68
2021/03/22 12:41:40;;;;;;;3.15;1.80;;;;;;;9.36;47.71;100364.09;2912672;81;21161;-67
2021/03/22 12:45:43;;;;;;;3.37;1.65;;;;;;;9.44;50.06;100364.38;2893673;81;21570;-68
2021/03/22 12:49:46;;;;;;;5.78;1.37;;;;;;;9.65;48.16;100362.36;2870346;83;21570;-68
2021/03/22 12:53:50;;;;;;;3.70;1.67;;;;;;;9.95;46.20;100355.63;2869895;82;21145;-67
2021/03/22 12:57:56;;;;;;;2.35;0.80;;;;;;;10.14;47.05;100353.70;2869796;83;21724;-68
2021/03/22 13:02:01;;;;;;;1.07;0.62;;;;;;;10.07;45.79;100368.42;2869873;81;21257;-67
2021/03/22 13:06:06;;;;;;;1.70;1.15;;;;;;;10.10;46.15;100358.87;2869880;83;21144;-68
2021/03/22 13:10:10;;;;;;;1.27;0.53;;;;;;;10.09;47.44;100364.69;2869529;83;21180;-68
2021/03/22 13:14:18;;;;;;;1.75;1.00;;;;;;;10.10;46.69;100348.25;2869642;83;21153;-68
2021/03/22 13:18:26;;;;;;;1.95;1.35;;;;;;;10.12;47.67;100355.61;2869813;83;21165;-68
2021/03/22 13:22:30;;;;;;;1.50;1.30;;;;;;;10.12;46.72;100363.59;2869782;83;21164;-68
2021/03/22 13:26:35;;;;;;;1.32;0.60;;;;;;;9.93;46.81;100364.20;2869716;83;21149;-68
2021/03/22 13:30:37;;;;;;;1.90;1.42;;;;;;;9.91;45.31;100362.98;2869816;83;21161;-68
2021/03/22 13:34:41;;;;;;;3.00;0.70;;;;;;;9.90;46.60;100363.94;2869959;83;21156;-68
2021/03/22 13:38:44;;;;;;;1.55;0.82;;;;;;;9.98;46.08;100360.69;2869889;83;21156;-67
2021/03/22 13:42:48;;;;;;;2.58;0.80;;;;;;;10.15;45.35;100362.87;2870772;83;21160;-68
2021/03/22 13:46:51;;;;;;;1.10;0.75;;;;;;;10.31;45.21;100360.33;2872408;81;21172;-68
2021/03/22 13:50:56;;;;;;;2.67;1.35;;;;;;;10.47;44.72;100351.16;2874214;82;21160;-68
2021/03/22 13:54:59;;;;;;;1.60;1.00;;;;;;;10.38;45.38;100350.88;2874043;82;21160;-68
2021/03/22 13:59:02;;;;;;;1.90;0.93;;;;;;;10.13;46.27;100359.99;2874229;82;21152;-68
2021/03/22 14:03:06;;;;;;;3.62;0.98;;;;;;;10.03;46.89;100354.55;2873990;81;21160;-68
2021/03/22 14:07:09;;;;;;;1.07;0.70;;;;;;;10.15;45.38;100364.20;2875069;82;21546;-63
2021/03/22 14:11:13;;;;;;;4.33;0.95;;;;;;;10.25;47.73;100365.64;2873883;82;21108;-62
2021/03/22 14:15:21;;;;;;;0.75;0.75;;;;;;;10.21;46.25;100369.52;2873719;82;21413;-62
2021/03/22 14:19:24;;;;;;;1.42;0.93;;;;;;;10.04;46.00;100365.55;2873645;82;21626;-62
2021/03/22 14:23:30;;;;;;;1.62;0.80;;;;;;;10.06;46.37;100364.94;2864937;82;21621;-66
2021/03/22 14:27:37;;;;;;;1.67;1.12;;;;;;;10.22;47.53;100356.59;2837596;82;21646;-63
2021/03/22 14:31:40;;;;;;;3.42;1.17;;;;;;;10.43;46.02;100363.38;2841145;82;21209;-64
2021/03/22 14:35:44;;;;;;;1.45;1.12;;;;;;;10.43;45.26;100367.38;2873132;82;21129;-61
2021/03/22 14:39:47;;;;;;;2.15;1.50;;;;;;;10.34;44.53;100374.70;2873813;82;21139;-61
2021/03/22 14:43:50;;;;;;;6.97;1.35;;;;;;;10.09;45.13;100367.35;2874063;82;21113;-61
2021/03/22 14:47:53;;;;;;;3.35;1.72;;;;;;;10.18;47.21;100372.89;2874026;81;21164;-60
2021/03/22 14:51:56;;;;;;;2.40;1.30;;;;;;;10.36;46.16;100368.78;2857899;80;21146;-61
2021/03/22 14:55:59;;;;;;;1.92;1.05;;;;;;;10.52;46.62;100363.59;2841297;82;21156;-62
2021/03/22 15:00:07;;;;;;;3.10;1.10;;;;;;;10.48;46.34;100366.15;2825056;84;21148;-61
2021/03/22 15:04:11;;;;;;;1.25;0.65;;;;;;;10.40;44.98;100364.93;2825021;84;21168;-63
2021/03/22 15:08:15;;;;;;;1.70;0.62;;;;;;;10.14;43.79;100374.47;2824931;84;21680;-61
2021/03/22 15:12:19;;;;;;;1.67;0.75;;;;;;;10.19;44.62;100377.24;2831743;82;21197;-61
2021/03/22 15:16:22;;;;;;;1.77;1.30;;;;;;;10.05;45.75;100384.52;2849720;82;21182;-62
2021/03/22 15:20:30;;;;;;;1.35;0.60;;;;;;;9.92;46.52;100381.11;2846074;82;21189;-61
2021/03/22 15:24:36;;;;;;;1.17;0.98;;;;;;;9.96;44.95;100379.89;2850406;82;21197;-61
2021/03/22 15:28:38;;;;;;;4.12;1.55;;;;;;;10.13;46.34;100382.09;2842045;82;21721;-62
2021/03/22 15:32:42;;;;;;;2.65;1.50;;;;;;;10.32;46.54;100372.66;2842150;82;21161;-61
2021/03/22 15:36:46;;;;;;;1.60;0.95;;;;;;;10.44;45.14;100380.16;2852844;82;21630;-61
2021/03/22 15:40:51;;;;;;;1.30;1.15;;;;;;;10.46;47.03;100382.22;2851727;82;21145;-62
2021/03/22 15:44:53;;;;;;;1.35;0.68;;;;;;;10.51;46.94;100381.86;2824531;82;21177;-63
2021/03/22 15:49:01;;;;;;;2.00;1.10;;;;;;;10.58;45.70;100387.03;2839815;82;21614;-63
2021/03/22 15:53:09;;;;;;;3.12;1.45;;;;;;;10.62;46.12;100384.52;2883330;81;21550;-61
2021/03/22 15:57:17;;;;;;;2.40;1.22;;;;;;;10.62;45.55;100393.82;2881680;82;21639;-63
2021/03/22 16:01:22;;;;;;;1.77;0.98;;;;;;;10.54;46.51;100385.59;2831977;84;21634;-62
2021/03/22 16:05:37;;;;;;;3.40;1.90;;;;;;;10.45;46.92;100400.47;2832624;81;21158;-63
2021/03/22 16:09:47;;;;;;;3.15;2.12;;;;;;;10.36;46.05;100391.38;2794844;84;21174;-62
2021/03/22 16:13:56;;;;;;;3.25;1.37;;;;;;;10.26;47.40;100400.56;2797262;84;21641;-62
2021/03/22 16:18:06;;;;;;;3.67;2.37;;;;;;;10.11;46.72;100403.95;2825091;84;21144;-63
2021/03/22 16:22:15;;;;;;;4.33;2.70;;;;;;;10.03;45.77;100411.69;2824875;84;21179;-61
2021/03/22 16:26:20;;;;;;;3.33;1.95;;;;;;;9.93;46.69;100414.69;2824847;83;21630;-62
2021/03/22 16:30:30;;;;;;;4.60;2.95;;;;;;;9.66;47.90;100425.14;2824799;84;21121;-62
2021/03/22 16:34:36;;;;;;;3.00;2.60;;;;;;;9.49;48.15;100421.95;2824697;84;21125;-62
2021/03/22 16:38:47;;;;;;;2.58;2.00;;;;;;;9.38;48.13;100416.59;2825506;84;21160;-61
2021/03/22 16:42:57;;;;;;;2.35;1.52;;;;;;;9.28;48.32;100425.72;2824940;84;21125;-63
2021/03/22 16:47:01;;;;;;;3.05;1.42;;;;;;;9.16;49.33;100423.49;2835845;83;21135;-60
2021/03/22 16:51:08;;;;;;;2.80;1.60;;;;;;;9.05;49.33;100426.11;2814099;84;21188;-61
2021/03/22 16:55:23;;;;;;;4.10;2.00;;;;;;;8.89;50.07;100422.38;2856147;83;21150;-62
2021/03/22 16:59:36;;;;;;;7.50;3.80;;;;;;;8.69;51.06;100430.84;2880917;81;21170;-61
2021/03/22 17:03:45;;;;;;;9.33;5.28;;;;;;;8.53;51.44;100436.86;2908285;81;21085;-63
2021/03/22 17:07:53;;;;;;;10.15;5.53;;;;;;;8.38;51.61;100450.20;2908456;81;21081;-62
2021/03/22 17:12:00;;;;;;;9.90;5.28;;;;;;;8.34;52.39;100448.73;2908184;81;21068;-61
2021/03/22 17:16:10;;;;;;;10.05;5.72;;;;;;;8.31;52.46;100454.70;2906436;80;21128;-62
2021/03/22 17:20:16;;;;;;;5.15;3.85;;;;;;;8.27;53.21;100450.13;2860318;81;21107;-62
2021/03/22 17:24:19;;;;;;;11.38;4.67;;;;;;;8.14;54.10;100452.28;2888440;81;21082;-62
2021/03/22 17:28:25;;;;;;;40.05;20.25;;;;;;;8.03;54.55;100453.98;2905443;81;21119;-61
2021/03/22 17:32:32;;;;;;;138.12;75.65;;;;;;;7.94;55.63;100456.28;2888713;80;21137;-61
2021/03/22 17:36:37;;;;;;;25.05;13.95;;;;;;;7.85;56.45;100464.37;2853612;83;21564;-62
2021/03/22 17:40:44;;;;;;;82.85;44.08;;;;;;;7.74;57.59;100469.57;2858436;83;21111;-61
2021/03/22 17:44:46;;;;;;;;;;;;;;;7.63;57.50;100468.10;2860798;83;21055;-61
2021/03/22 17:48:49;;;;;;;73.45;40.78;;;;;;;7.61;56.21;100479.27;2860967;83;20201;-61
2021/03/22 17:52:53;;;;;;;65.57;35.98;;;;;;;7.61;54.93;100479.27;2822402;84;21162;-61
2021/03/22 17:56:56;;;;;;;43.28;21.93;;;;;;;7.54;56.32;100481.02;2822145;84;21158;-61
2021/03/22 18:00:59;;;;;;;7.58;5.00;;;;;;;7.49;56.96;100485.77;2822267;83;21650;-61
2021/03/22 18:05:05;;;;;;;7.92;4.78;;;;;;;7.38;58.33;100493.55;2819870;84;21179;-62
2021/03/22 18:09:08;;;;;;;10.38;6.37;;;;;;;7.22;58.78;100499.00;2832453;81;21594;-62
2021/03/22 18:13:17;;;;;;;12.20;7.40;;;;;;;7.07;57.95;100516.22;2829999;81;21134;-61
2021/03/22 18:17:20;;;;;;;9.68;5.60;;;;;;;6.94;58.31;100515.29;2814693;83;21150;-62
2021/03/22 18:21:24;;;;;;;8.55;6.42;;;;;;;6.76;58.84;100528.71;2855289;81;21201;-61
2021/03/22 18:25:29;;;;;;;13.85;6.87;;;;;;;6.66;58.63;100524.95;2828443;84;21188;-61
2021/03/22 18:29:36;;;;;;;8.33;6.25;;;;;;;6.60;58.70;100537.23;2890577;81;21643;-61
2021/03/22 18:33:39;;;;;;;;;;;;;;;6.48;60.04;100537.48;2923837;80;21607;-60
2021/03/22 18:37:43;;;;;;;9.80;6.42;;;;;;;6.36;61.93;100545.23;2924232;81;20160;-62
2021/03/22 18:41:47;;;;;;;14.45;7.90;;;;;;;6.19;61.85;100551.98;2924047;81;21633;-61
2021/03/22 18:45:50;;;;;;;13.50;9.48;;;;;;;6.02;61.32;100547.23;2886249;81;21154;-61
2021/03/22 18:49:53;;;;;;;17.02;11.00;;;;;;;5.99;61.28;100547.38;2852521;83;21178;-61
2021/03/22 18:53:56;;;;;;;16.73;11.43;;;;;;;5.97;61.65;100550.58;2818395;84;21143;-61
2021/03/22 18:58:00;;;;;;;24.52;13.78;;;;;;;5.99;62.31;100559.26;2818754;84;21155;-61
2021/03/22 19:02:07;;;;;;;19.95;10.95;;;;;;;5.99;62.32;100556.62;2818368;84;21563;-61
2021/03/22 19:06:12;;;;;;;18.12;12.40;;;;;;;5.95;62.79;100562.54;2818644;84;21627;-61
2021/03/22 19:10:20;;;;;;;22.50;12.20;;;;;;;5.96;63.13;100565.56;2824219;83;21138;-61
2021/03/22 19:14:23;;;;;;;30.05;15.08;;;;;;;5.98;63.44;100573.41;2818783;84;21170;-61
2021/03/22 19:18:26;;;;;;;29.55;15.10;;;;;;;5.94;63.32;100574.53;2818720;84;21155;-61
2021/03/22 19:22:28;;;;;;;29.85;15.53;;;;;;;5.80;63.75;100578.80;2818967;84;21159;-62
2021/03/22 19:26:34;;;;;;;34.10;15.65;;;;;;;5.65;63.66;100583.63;2847040;81;21165;-61
2021/03/22 19:30:37;;;;;;;32.13;18.07;;;;;;;5.56;64.01;100589.82;2910248;80;21153;-61